NO-0047 weather

Bykle Heliport, Hovden
Bykle, Aust-Agder, Norway

Public forecast

Using degrees Celsius for public forecast. Weather courtesy of forecast.io.

Closest aviation weather report (METAR) to Bykle Heliport, Hovden

Report is more than 6 hours old.

Closest report is Notodden Airport, 56.2 nm (104.0 km) E. Retrieved 2020/05/25 11:50 UTC (10 hours ago):

ENNO 251150Z 13002KT 9999 FEW055 20/06 Q1028

Closest aviation forecast (TAF) to Bykle Heliport, Hovden

Closest forecast is Stavanger Airport Sola, 66.0 nm (122.2 km) SW. Retrieved 2020/05/25 18:57 UTC (3 hours ago):

TAF ENZV 251700Z 2518/2618 30010KT 9999 FEW015 BKN080 BECMG 2518/2520 VRB05KT PROB30 2600/2605 4000 BR BKN004 BECMG 2605/2607 17010KT BECMG 2616/2618 33008KT